createdAt,value
2022-10-17T00:01:34.582Z,4.30
2022-10-17T00:04:01.503Z,4.29
2022-10-17T00:06:28.126Z,4.17
2022-10-17T00:08:54.904Z,4.15
2022-10-17T00:11:23.707Z,4.21
2022-10-17T00:13:51.593Z,4.18
2022-10-17T00:16:30.773Z,4.06
2022-10-17T00:18:57.950Z,4.14
2022-10-17T00:21:25.979Z,4.03
2022-10-17T00:23:53.069Z,4.02
2022-10-17T00:26:21.038Z,4.01
2022-10-17T00:28:49.284Z,4.10
2022-10-17T00:31:17.931Z,4.01
2022-10-17T00:33:45.489Z,4.11
2022-10-17T00:36:19.285Z,4.17
2022-10-17T00:38:49.830Z,4.23
2022-10-17T00:41:19.056Z,4.28
2022-10-17T00:43:48.979Z,4.28
2022-10-17T00:46:15.763Z,4.32
2022-10-17T00:48:43.298Z,4.35
2022-10-17T00:51:10.535Z,4.34
2022-10-17T00:53:39.273Z,4.34
2022-10-17T00:56:06.308Z,4.25
2022-10-17T00:58:33.364Z,4.37
2022-10-17T01:01:01.683Z,4.39
2022-10-17T01:03:28.359Z,4.37
2022-10-17T01:05:55.562Z,4.37
2022-10-17T01:08:22.359Z,4.23
2022-10-17T01:11:13.516Z,4.35
2022-10-17T01:14:02.321Z,4.34
2022-10-17T01:16:43.600Z,4.26
2022-10-17T01:19:30.935Z,4.36
2022-10-17T01:22:01.808Z,4.39
2022-10-17T01:24:49.240Z,4.40
2022-10-17T01:28:12.860Z,4.41
2022-10-17T01:30:58.556Z,4.41
2022-10-17T01:33:46.841Z,4.46
2022-10-17T01:36:37.570Z,4.48
2022-10-17T01:39:38.691Z,4.49
2022-10-17T01:42:34.121Z,4.52
2022-10-17T01:45:12.655Z,4.43
2022-10-17T01:47:42.212Z,4.40
2022-10-17T01:50:24.149Z,4.51
2022-10-17T01:52:53.272Z,4.48
2022-10-17T01:55:25.450Z,4.47
2022-10-17T01:58:03.332Z,4.42
2022-10-17T02:00:32.384Z,4.42
2022-10-17T02:03:01.335Z,4.44
2022-10-17T02:05:32.822Z,4.33
2022-10-17T02:07:59.663Z,4.40
2022-10-17T02:10:35.304Z,4.32
2022-10-17T02:13:22.013Z,4.43
2022-10-17T02:16:18.084Z,4.39
2022-10-17T02:18:57.120Z,4.45
2022-10-17T02:21:44.163Z,4.46
2022-10-17T02:24:11.027Z,4.44
2022-10-17T02:27:12.233Z,4.34
2022-10-17T02:29:47.976Z,4.43
2022-10-17T02:32:37.013Z,4.44
2022-10-17T02:35:08.061Z,4.44
2022-10-17T02:37:36.442Z,4.47
2022-10-17T02:40:05.170Z,4.51
2022-10-17T02:42:33.175Z,4.53
2022-10-17T02:45:02.391Z,4.58
2022-10-17T02:47:40.791Z,4.63
2022-10-17T02:50:08.093Z,4.68
2022-10-17T02:52:45.867Z,4.72
2022-10-17T02:55:25.737Z,4.73
2022-10-17T02:57:56.872Z,4.78
2022-10-17T03:00:25.468Z,4.72
2022-10-17T03:02:53.894Z,4.81
2022-10-17T03:05:26.457Z,4.82
2022-10-17T03:07:54.884Z,4.82
2022-10-17T03:10:22.390Z,4.84
2022-10-17T03:12:49.074Z,4.83
2022-10-17T03:15:16.314Z,4.75
2022-10-17T03:17:43.141Z,4.77
2022-10-17T03:20:10.439Z,4.83
2022-10-17T03:22:37.393Z,4.81
2022-10-17T03:25:05.043Z,4.81
2022-10-17T03:27:34.026Z,4.74
2022-10-17T03:30:01.364Z,4.68
2022-10-17T03:32:29.388Z,4.75
2022-10-17T03:34:56.202Z,4.75
2022-10-17T03:37:23.378Z,4.75
2022-10-17T03:39:50.052Z,4.74
2022-10-17T03:42:16.983Z,4.62
2022-10-17T03:44:43.911Z,4.69
2022-10-17T03:47:13.405Z,4.65
2022-10-17T03:49:41.634Z,4.62
2022-10-17T03:52:12.994Z,4.50
2022-10-17T03:54:40.438Z,4.55
2022-10-17T03:57:07.114Z,4.53
2022-10-17T03:59:35.403Z,4.51
2022-10-17T04:02:02.737Z,4.39
2022-10-17T04:04:29.684Z,4.45
2022-10-17T04:06:57.244Z,4.43
2022-10-17T04:09:24.067Z,4.43
2022-10-17T04:11:52.993Z,4.42
2022-10-17T04:14:20.603Z,4.34
2022-10-17T04:16:47.398Z,4.38
2022-10-17T04:19:15.147Z,4.38
2022-10-17T04:21:41.981Z,4.24
2022-10-17T04:24:11.823Z,4.36
2022-10-17T04:26:39.797Z,4.28
2022-10-17T04:29:06.576Z,4.14
2022-10-17T04:31:33.313Z,4.34
2022-10-17T04:34:00.813Z,4.34
2022-10-17T04:36:27.553Z,4.24
2022-10-17T04:38:54.536Z,4.34
2022-10-17T04:41:21.549Z,4.33
2022-10-17T04:43:51.024Z,4.35
2022-10-17T04:46:18.653Z,4.26
2022-10-17T04:48:45.893Z,4.27
2022-10-17T04:51:14.945Z,4.36
2022-10-17T04:53:46.705Z,4.36
2022-10-17T04:56:17.316Z,4.29
2022-10-17T04:58:45.139Z,4.39
2022-10-17T05:01:18.459Z,4.40
2022-10-17T05:03:46.448Z,4.42
2022-10-17T05:06:19.087Z,4.45
2022-10-17T05:08:47.399Z,4.40
2022-10-17T05:11:26.205Z,4.50
2022-10-17T05:13:58.592Z,4.51
2022-10-17T05:16:26.632Z,4.55
2022-10-17T05:18:57.937Z,4.49
2022-10-17T05:21:28.651Z,4.61
2022-10-17T05:23:56.548Z,4.57
2022-10-17T05:26:25.470Z,4.71
2022-10-17T05:28:52.813Z,4.75
2022-10-17T05:31:22.244Z,4.79
2022-10-17T05:33:49.140Z,4.84
2022-10-17T05:36:15.781Z,4.87
2022-10-17T05:38:43.497Z,4.91
2022-10-17T05:41:11.007Z,4.97
2022-10-17T05:43:38.144Z,4.95
2022-10-17T05:46:06.622Z,5.03
2022-10-17T05:48:34.526Z,5.12
2022-10-17T05:51:04.178Z,5.14
2022-10-17T05:53:33.500Z,5.20
2022-10-17T05:56:05.252Z,5.22
2022-10-17T05:58:52.286Z,5.17
2022-10-17T06:01:22.757Z,5.30
2022-10-17T06:03:51.057Z,5.37
2022-10-17T06:06:18.970Z,5.41
2022-10-17T06:08:46.187Z,5.46
2022-10-17T06:11:13.678Z,5.43
2022-10-17T06:13:41.763Z,5.54
2022-10-17T06:16:09.766Z,5.64
2022-10-17T06:18:36.706Z,5.65
2022-10-17T06:21:09.843Z,5.80
2022-10-17T06:23:40.047Z,5.89
2022-10-17T06:26:07.643Z,5.89
2022-10-17T06:28:35.923Z,6.03
2022-10-17T06:31:08.186Z,6.11
2022-10-17T06:33:36.117Z,6.17
2022-10-17T06:36:05.001Z,6.24
2022-10-17T06:38:32.164Z,6.32
2022-10-17T06:41:13.431Z,6.38
2022-10-17T06:43:46.110Z,6.44
2022-10-17T06:46:21.342Z,6.46
2022-10-17T06:48:50.788Z,6.51
2022-10-17T06:51:17.605Z,6.59
2022-10-17T06:53:44.494Z,6.72
2022-10-17T06:56:12.194Z,6.84
2022-10-17T06:58:40.438Z,6.94
2022-10-17T07:01:11.747Z,6.94
2022-10-17T07:03:40.174Z,7.12
2022-10-17T07:06:07.297Z,7.17
2022-10-17T07:08:34.029Z,7.19
2022-10-17T07:11:19.135Z,7.18
2022-10-17T07:13:48.374Z,7.39
2022-10-17T07:16:16.517Z,7.50
2022-10-17T07:18:44.414Z,7.55
2022-10-17T07:21:11.093Z,7.50
2022-10-17T07:23:39.867Z,7.57
2022-10-17T07:26:09.622Z,7.65
2022-10-17T07:28:39.857Z,7.72
2022-10-17T07:31:11.887Z,7.78
2022-10-17T07:33:38.946Z,7.84
2022-10-17T07:36:06.202Z,7.90
2022-10-17T07:38:34.295Z,8.01
2022-10-17T07:41:03.756Z,7.97
2022-10-17T07:43:31.041Z,8.04
2022-10-17T07:46:00.819Z,8.06
2022-10-17T07:48:27.504Z,8.09
2022-10-17T07:50:54.568Z,8.10
2022-10-17T07:53:21.756Z,8.15
2022-10-17T07:55:49.615Z,8.21
2022-10-17T07:58:17.033Z,8.27
2022-10-17T08:00:44.058Z,8.27
2022-10-17T08:03:11.059Z,8.43
2022-10-17T08:05:37.690Z,8.56
2022-10-17T08:08:04.509Z,8.65
2022-10-17T08:10:31.608Z,8.67
2022-10-17T08:12:58.749Z,8.81
2022-10-17T08:15:29.430Z,8.91
2022-10-17T08:17:59.569Z,9.02
2022-10-17T08:20:26.524Z,9.04
2022-10-17T08:22:54.412Z,9.00
2022-10-17T08:25:22.099Z,9.14
2022-10-17T08:27:50.672Z,9.21
2022-10-17T08:30:17.870Z,9.27
2022-10-17T08:32:45.113Z,9.30
2022-10-17T08:35:11.988Z,9.33
2022-10-17T08:37:38.594Z,9.39
2022-10-17T08:40:06.052Z,9.43
2022-10-17T08:42:41.676Z,9.62
2022-10-17T08:45:08.596Z,9.66
2022-10-17T08:47:45.559Z,9.78
2022-10-17T08:50:26.831Z,9.86
2022-10-17T08:53:10.821Z,9.94
2022-10-17T08:55:44.394Z,10.09
2022-10-17T08:58:23.045Z,10.16
2022-10-17T09:01:08.017Z,10.19
2022-10-17T09:04:00.464Z,10.23
2022-10-17T09:06:35.141Z,10.24
2022-10-17T09:09:20.704Z,10.28
2022-10-17T09:12:05.192Z,10.28
2022-10-17T09:14:53.696Z,10.34
2022-10-17T09:17:42.839Z,10.46
2022-10-17T09:20:16.169Z,10.45
2022-10-17T09:23:13.399Z,10.52
2022-10-17T09:25:47.939Z,10.55
2022-10-17T09:28:32.644Z,10.58
2022-10-17T09:31:04.669Z,10.64
2022-10-17T09:33:53.724Z,10.71
2022-10-17T09:36:29.474Z,10.78
2022-10-17T09:38:59.779Z,10.82
2022-10-17T09:41:44.798Z,10.86
2022-10-17T09:44:23.502Z,10.96
2022-10-17T09:47:22.340Z,11.03
2022-10-17T09:49:50.236Z,11.07
2022-10-17T09:52:27.880Z,11.09
2022-10-17T09:55:02.724Z,11.07
2022-10-17T09:57:49.386Z,11.09
2022-10-17T10:00:23.749Z,11.19
2022-10-17T10:02:50.743Z,11.23
2022-10-17T10:05:20.057Z,11.28
2022-10-17T10:08:15.524Z,11.27
2022-10-17T10:10:43.747Z,11.35
2022-10-17T10:13:13.284Z,11.39
2022-10-17T10:15:46.082Z,11.45
2022-10-17T10:21:09.768Z,11.74
2022-10-17T10:23:40.478Z,11.82
2022-10-17T10:26:27.692Z,11.87
2022-10-17T10:29:01.910Z,11.91
2022-10-17T10:31:32.511Z,11.94
2022-10-17T10:34:02.336Z,11.94
2022-10-17T10:36:46.890Z,12.03
2022-10-17T10:39:41.897Z,12.07
2022-10-17T10:42:30.898Z,12.10
2022-10-17T10:45:04.234Z,12.19
2022-10-17T10:47:33.004Z,12.13
2022-10-17T10:50:21.028Z,12.25
2022-10-17T10:53:00.189Z,12.27
2022-10-17T10:55:32.677Z,12.29
2022-10-17T10:58:08.725Z,12.32
2022-10-17T11:00:38.859Z,12.35
2022-10-17T11:03:42.756Z,12.37
2022-10-17T11:06:32.575Z,12.50
2022-10-17T11:09:24.367Z,12.64
2022-10-17T11:12:29.148Z,12.79
2022-10-17T11:14:58.380Z,13.01
2022-10-17T11:17:51.311Z,13.15
2022-10-17T11:20:27.404Z,13.25
2022-10-17T11:23:01.602Z,13.18
2022-10-17T11:25:33.164Z,13.24
2022-10-17T11:28:04.729Z,13.22
2022-10-17T11:30:46.833Z,13.28
2022-10-17T11:33:26.032Z,13.34
2022-10-17T11:35:58.729Z,13.26
2022-10-17T11:38:50.740Z,13.34
2022-10-17T11:41:24.862Z,13.30
2022-10-17T11:44:03.976Z,13.16
2022-10-17T11:46:34.290Z,13.16
2022-10-17T11:49:19.838Z,13.30
2022-10-17T11:52:00.466Z,13.34
2022-10-17T11:54:56.303Z,13.40
2022-10-17T11:57:37.254Z,13.42
2022-10-17T12:00:36.830Z,13.42
2022-10-17T12:03:27.566Z,13.44
2022-10-17T12:06:19.374Z,13.54
2022-10-17T12:09:00.703Z,13.54
2022-10-17T12:12:02.368Z,13.54
2022-10-17T12:14:45.689Z,13.53
2022-10-17T12:17:39.039Z,13.53
2022-10-17T12:20:21.558Z,13.52
2022-10-17T12:22:53.447Z,13.54
2022-10-17T12:25:22.548Z,13.55
2022-10-17T12:27:51.295Z,13.57
2022-10-17T12:30:24.865Z,13.57
2022-10-17T12:33:34.229Z,13.58
2022-10-17T12:36:22.768Z,13.51
2022-10-17T12:39:14.544Z,13.62
2022-10-17T12:41:41.395Z,13.68
2022-10-17T12:44:14.636Z,13.81
2022-10-17T12:46:47.339Z,13.89
2022-10-17T12:49:39.172Z,13.79
2022-10-17T12:52:48.137Z,13.85
2022-10-17T12:55:19.900Z,13.82
2022-10-17T12:58:08.073Z,13.77
2022-10-17T13:00:49.688Z,13.82
2022-10-17T13:03:28.351Z,13.75
2022-10-17T13:05:59.534Z,13.82
2022-10-17T13:08:31.894Z,13.84
2022-10-17T13:10:58.954Z,13.74
2022-10-17T13:13:34.447Z,13.77
2022-10-17T13:16:01.843Z,13.79
2022-10-17T13:18:30.330Z,13.88
2022-10-17T13:21:05.704Z,13.87
2022-10-17T13:23:35.904Z,13.89
2022-10-17T13:26:20.310Z,13.91
2022-10-17T13:29:04.647Z,13.94
2022-10-17T13:31:37.298Z,13.96
2022-10-17T13:34:07.181Z,13.99
2022-10-17T13:36:35.294Z,14.01
2022-10-17T13:39:12.476Z,13.98
2022-10-17T13:41:41.969Z,13.97
2022-10-17T13:44:22.759Z,13.96
2022-10-17T13:46:50.382Z,13.96
2022-10-17T13:49:24.523Z,13.93
2022-10-17T13:51:56.176Z,13.88
2022-10-17T13:54:42.732Z,13.90
2022-10-17T13:57:21.482Z,13.99
2022-10-17T13:59:52.283Z,13.99
2022-10-17T14:02:26.857Z,13.95
2022-10-17T14:05:17.712Z,13.92
2022-10-17T14:08:10.546Z,13.82
2022-10-17T14:10:40.706Z,13.86
2022-10-17T14:13:20.019Z,13.85
2022-10-17T14:15:47.311Z,13.75
2022-10-17T14:18:19.668Z,13.80
2022-10-17T14:21:29.232Z,13.73
2022-10-17T14:23:34.697Z,13.78
2022-10-17T14:26:22.049Z,13.77
2022-10-17T14:29:03.137Z,13.75
2022-10-17T14:31:37.136Z,13.72
2022-10-17T14:34:05.694Z,13.69
2022-10-17T14:36:40.300Z,13.59
2022-10-17T14:39:18.337Z,13.63
2022-10-17T14:41:46.607Z,13.63
2022-10-17T14:44:20.684Z,13.62
2022-10-17T14:46:52.579Z,13.58
2022-10-17T14:49:28.173Z,13.64
2022-10-17T14:52:18.306Z,13.66
2022-10-17T14:54:50.118Z,13.67
2022-10-17T14:57:23.149Z,13.69
2022-10-17T14:59:55.068Z,13.70
2022-10-17T15:02:24.027Z,13.69
2022-10-17T15:04:51.312Z,13.61
2022-10-17T15:07:18.916Z,13.66
2022-10-17T15:09:48.251Z,13.66
2022-10-17T15:12:21.669Z,13.62
2022-10-17T15:14:48.759Z,13.58
2022-10-17T15:17:27.959Z,13.44
2022-10-17T15:19:55.630Z,13.42
2022-10-17T15:22:23.648Z,13.39
2022-10-17T15:24:50.690Z,13.33
2022-10-17T15:27:21.343Z,13.29
2022-10-17T15:29:48.719Z,13.20
2022-10-17T15:32:16.048Z,13.20
2022-10-17T15:34:43.161Z,13.16
2022-10-17T15:37:22.473Z,13.14
2022-10-17T15:39:53.565Z,13.14
2022-10-17T15:42:23.094Z,13.10
2022-10-17T15:44:50.395Z,13.02
2022-10-17T15:47:28.986Z,13.05
2022-10-17T15:49:56.640Z,13.02
2022-10-17T15:52:24.463Z,12.97
2022-10-17T15:54:51.872Z,12.93
2022-10-17T15:57:25.613Z,12.89
2022-10-17T15:59:54.200Z,12.85
2022-10-17T16:02:23.068Z,12.84
2022-10-17T16:04:51.441Z,12.73
2022-10-17T16:07:20.282Z,12.80
2022-10-17T16:09:47.406Z,12.81
2022-10-17T16:14:49.459Z,12.80
2022-10-17T16:17:16.954Z,12.78
2022-10-17T16:19:44.010Z,12.70
2022-10-17T16:22:36.533Z,12.76
2022-10-17T16:25:10.119Z,12.76
2022-10-17T16:27:37.665Z,12.73
2022-10-17T16:30:07.155Z,12.72
2022-10-17T16:32:34.511Z,12.71
2022-10-17T16:35:01.554Z,12.70
2022-10-17T16:37:28.477Z,12.66
2022-10-17T16:39:55.099Z,12.55
2022-10-17T16:42:22.428Z,12.61
2022-10-17T16:44:50.363Z,12.59
2022-10-17T16:47:18.431Z,12.56
2022-10-17T16:49:45.843Z,12.53
2022-10-17T16:52:13.134Z,12.52
2022-10-17T16:54:39.889Z,12.46
2022-10-17T16:57:06.774Z,12.51
2022-10-17T16:59:33.764Z,12.52
2022-10-17T17:02:00.877Z,12.52
2022-10-17T17:04:27.645Z,12.51
2022-10-17T17:06:54.619Z,12.50
2022-10-17T17:09:21.462Z,12.55
2022-10-17T17:11:48.215Z,12.56
2022-10-17T17:14:15.399Z,12.58
2022-10-17T17:16:43.418Z,12.59
2022-10-17T17:19:13.013Z,12.58
2022-10-17T17:21:40.332Z,12.56
2022-10-17T17:24:06.990Z,12.57
2022-10-17T17:26:38.953Z,12.51
2022-10-17T17:29:05.929Z,12.52
2022-10-17T17:31:34.723Z,12.58
2022-10-17T17:34:02.591Z,12.59
2022-10-17T17:36:32.766Z,12.53
2022-10-17T17:39:00.975Z,12.61
2022-10-17T17:41:28.429Z,12.62
2022-10-17T17:43:56.064Z,12.55
2022-10-17T17:46:23.993Z,12.49
2022-10-17T17:48:52.591Z,12.54
2022-10-17T17:51:28.491Z,12.52
2022-10-17T17:53:56.486Z,12.51
2022-10-17T17:56:28.922Z,12.45
2022-10-17T17:58:59.104Z,12.49
2022-10-17T18:01:28.481Z,12.40
2022-10-17T18:03:58.902Z,12.49
2022-10-17T18:06:26.786Z,12.48
2022-10-17T18:08:58.048Z,12.45
2022-10-17T18:11:26.258Z,12.43
2022-10-17T18:13:55.121Z,12.40
2022-10-17T18:16:21.983Z,12.41
2022-10-17T18:18:49.261Z,12.40
2022-10-17T18:21:16.400Z,12.39
2022-10-17T18:23:45.548Z,12.36
2022-10-17T18:26:14.385Z,12.34
2022-10-17T18:31:15.513Z,12.35
2022-10-17T18:33:44.587Z,12.35
2022-10-17T18:36:13.853Z,12.36
2022-10-17T18:38:40.791Z,12.28
2022-10-17T18:41:13.912Z,12.25
2022-10-17T18:43:42.946Z,12.32
2022-10-17T18:46:14.818Z,12.27
2022-10-17T18:48:44.454Z,12.29
2022-10-17T18:51:12.956Z,12.28
2022-10-17T18:53:44.988Z,12.26
2022-10-17T18:56:13.366Z,12.27
2022-10-17T18:58:40.669Z,12.26
2022-10-17T19:01:17.665Z,12.22
2022-10-17T19:03:47.319Z,12.14
2022-10-17T19:06:16.453Z,12.20
2022-10-17T19:08:44.137Z,12.21
2022-10-17T19:11:12.298Z,12.25
2022-10-17T19:13:39.584Z,12.25
2022-10-17T19:16:08.308Z,12.25
2022-10-17T19:18:35.990Z,12.24
2022-10-17T19:21:04.894Z,12.22
2022-10-17T19:23:31.990Z,12.22
2022-10-17T19:26:07.328Z,12.21
2022-10-17T19:28:34.933Z,12.18
2022-10-17T19:31:02.337Z,12.18
2022-10-17T19:36:15.968Z,12.13
2022-10-17T19:38:43.080Z,12.12
2022-10-17T19:41:11.768Z,12.05
2022-10-17T19:43:40.044Z,12.13
2022-10-17T19:46:10.456Z,12.13
2022-10-17T19:48:38.038Z,12.11
2022-10-17T19:51:06.298Z,12.11
2022-10-17T19:53:33.721Z,12.11
2022-10-17T19:56:00.936Z,12.11
2022-10-17T19:58:28.038Z,12.08
2022-10-17T20:00:57.274Z,12.10
2022-10-17T20:03:25.294Z,12.07
2022-10-17T20:05:52.267Z,12.08
2022-10-17T20:08:19.396Z,12.02
2022-10-17T20:10:46.463Z,12.02
2022-10-17T20:13:14.183Z,12.00
2022-10-17T20:15:41.231Z,11.96
2022-10-17T20:18:08.892Z,12.00
2022-10-17T20:20:36.795Z,11.97
2022-10-17T20:23:04.700Z,11.98
2022-10-17T20:25:33.416Z,11.96
2022-10-17T20:28:00.297Z,11.92
2022-10-17T20:30:27.027Z,11.91
2022-10-17T20:32:55.572Z,11.87
2022-10-17T20:35:22.816Z,11.85
2022-10-17T20:37:49.564Z,11.84
2022-10-17T20:40:34.753Z,11.81
2022-10-17T20:43:06.616Z,11.78
2022-10-17T20:45:50.769Z,11.79
2022-10-17T20:48:18.669Z,11.68
2022-10-17T20:50:45.570Z,11.75
2022-10-17T20:56:05.811Z,11.72
2022-10-17T20:58:32.642Z,11.73
2022-10-17T21:01:05.332Z,11.70
2022-10-17T21:03:35.530Z,11.71
2022-10-17T21:06:02.425Z,11.65
2022-10-17T21:08:29.151Z,11.69
2022-10-17T21:11:06.893Z,11.68
2022-10-17T21:13:33.544Z,11.49
2022-10-17T21:16:05.644Z,11.66
2022-10-17T21:18:32.320Z,11.65
2022-10-17T21:21:26.687Z,11.56
2022-10-17T21:23:58.847Z,11.63
2022-10-17T21:26:25.535Z,11.60
2022-10-17T21:28:52.502Z,11.57
2022-10-17T21:31:22.489Z,11.50
2022-10-17T21:33:57.184Z,11.55
2022-10-17T21:36:25.759Z,11.55
2022-10-17T21:38:54.541Z,11.56
2022-10-17T21:41:23.989Z,11.47
2022-10-17T21:43:59.282Z,11.57
2022-10-17T21:46:26.212Z,11.55
2022-10-17T21:48:53.690Z,11.47
2022-10-17T21:51:22.923Z,11.53
2022-10-17T21:53:50.891Z,11.55
2022-10-17T21:56:24.011Z,11.46
2022-10-17T21:58:51.712Z,11.53
2022-10-17T22:01:43.328Z,11.51
2022-10-17T22:04:12.849Z,11.51
2022-10-17T22:06:41.966Z,11.49
2022-10-17T22:09:15.880Z,11.41
2022-10-17T22:11:46.133Z,11.49
2022-10-17T22:14:15.599Z,11.50
2022-10-17T22:16:44.947Z,11.51
2022-10-17T22:19:13.319Z,11.52
2022-10-17T22:21:40.214Z,11.50
2022-10-17T22:24:10.638Z,11.51
2022-10-17T22:26:38.015Z,11.41
2022-10-17T22:29:06.772Z,11.48
2022-10-17T22:31:34.113Z,11.47
2022-10-17T22:34:00.836Z,11.38
2022-10-17T22:36:27.633Z,11.42
2022-10-17T22:38:54.889Z,11.41
2022-10-17T22:41:21.807Z,11.41
2022-10-17T22:43:48.468Z,11.35
2022-10-17T22:46:18.725Z,11.33
2022-10-17T22:48:45.517Z,11.30
2022-10-17T22:51:12.413Z,11.27
2022-10-17T22:53:39.466Z,11.24
2022-10-17T22:56:11.968Z,11.21
2022-10-17T22:58:39.240Z,11.23
2022-10-17T23:01:07.348Z,11.20
2022-10-17T23:03:35.296Z,11.19
2022-10-17T23:06:03.038Z,11.08
2022-10-17T23:08:30.072Z,11.15
2022-10-17T23:10:56.894Z,11.13
2022-10-17T23:13:24.125Z,11.09
2022-10-17T23:15:53.166Z,11.08
2022-10-17T23:18:20.786Z,11.05
2022-10-17T23:20:48.520Z,11.02
2022-10-17T23:23:15.529Z,10.96
2022-10-17T23:25:42.799Z,10.96
2022-10-17T23:28:10.532Z,10.95
2022-10-17T23:30:38.023Z,10.87
2022-10-17T23:33:05.635Z,10.90
2022-10-17T23:35:32.961Z,10.88
2022-10-17T23:38:00.030Z,10.76
2022-10-17T23:40:27.124Z,10.82
2022-10-17T23:42:54.078Z,10.71
2022-10-17T23:45:21.028Z,10.71
2022-10-17T23:47:47.686Z,10.76
2022-10-17T23:50:14.753Z,10.76
2022-10-17T23:52:41.438Z,10.75
2022-10-17T23:55:08.950Z,10.74
2022-10-17T23:57:35.975Z,10.73
